Antilles Vi — 3EKX6 — position and weather

sailwx.info

Track history (hours):
 
Tides and Currents Weather Stations Pressure Air Temp Water Temp Dewpoint Dewpoint Depression Visibility Wind Speed Wind Dir Waves Ship Positions

Antilles Vi

Last reported at 2017-Nov-14 05:01 UTC. Time now 2017-Nov-22 05:33 UTC.
Position N 01°14' E 103°28'.
Warning: this ship's position is 8 days out of date.

Length 170 m; draft 6.9 m.

Type: Cargo ship. MMSI: 373622000.

Date/timePositionNaut miles runAvg speedWind from/ knotsBaromVisibWave heightAir tempDewpointWater temp
2017-Nov-14 05:01N 01°14' E 103°28'020.2
2017-Nov-14 05:01N 01°14' E 103°28'612.3
2017-Nov-14 04:30N 01°12' E 103°34'612.2
2017-Nov-14 04:00N 01°11' E 103°40'510.6
2017-Nov-14 03:30N 01°09' E 103°45'612.5
2017-Nov-14 03:00N 01°12' E 103°51'611.7
2017-Nov-14 02:30N 01°14' E 103°56'812.2
2017-Nov-14 01:51N 01°17' E 104°04'13 0.5
2017-Nov-13 01:32N 01°26' E 103°55'0 0.0
2017-Nov-12 22:32N 01°26' E 103°55'0 0.0
2017-Nov-12 04:02N 01°26' E 103°55'0 0.0
2017-Nov-12 02:02N 01°26' E 103°55'0 0.0
2017-Nov-12 01:02N 01°26' E 103°55'0 0.0
2017-Nov-12 00:56N 01°26' E 103°55'0 0.0
2017-Nov-11 22:32N 01°26' E 103°55'0 0.0
2017-Nov-11 22:26N 01°26' E 103°55'0 0.0
2017-Nov-11 21:47N 01°26' E 103°55'9 6.1
2017-Nov-11 20:18N 01°22' E 104°03'310.6
2017-Nov-11 19:58N 01°19' E 104°05'6 0.4
2017-Nov-11 05:57N 01°15' E 104°01'410.1
2017-Nov-11 05:30N 01°14' E 103°57'510.1
2017-Nov-11 05:00N 01°12' E 103°53'5 9.2
2017-Nov-11 04:30N 01°10' E 103°48'5 9.8
2017-Nov-11 04:00N 01°07' E 103°45'511.0
2017-Nov-11 03:30N 01°03' E 103°40'610.5
2017-Nov-11 02:59N 01°05' E 103°35'611.2
2017-Nov-11 02:29N 01°07' E 103°30'711.3
2017-Nov-11 01:53N 01°11' E 103°25'  
Track history (hours):
 
Tides and Currents Weather Stations Pressure Air Temp Water Temp Dewpoint Dewpoint Depression Visibility Wind Speed Wind Dir Waves Ship Positions

Antilles Vi

Last reported at 2017-Nov-14 05:01 UTC. Time now 2017-Nov-22 05:33 UTC.
Position N 01°14' E 103°28'.
Warning: this ship's position is 8 days out of date.

Length 170 m; draft 6.9 m.

Type: Cargo ship. MMSI: 373622000.

Date/timePositionNaut miles runAvg speedWind from/ knotsBaromVisibWave heightAir tempDewpointWater temp
2017-Nov-14 05:01N 01°14' E 103°28'020.2
2017-Nov-14 05:01N 01°14' E 103°28'612.3
2017-Nov-14 04:30N 01°12' E 103°34'612.2
2017-Nov-14 04:00N 01°11' E 103°40'510.6
2017-Nov-14 03:30N 01°09' E 103°45'612.5
2017-Nov-14 03:00N 01°12' E 103°51'611.7
2017-Nov-14 02:30N 01°14' E 103°56'812.2
2017-Nov-14 01:51N 01°17' E 104°04'13 0.5
2017-Nov-13 01:32N 01°26' E 103°55'0 0.0
2017-Nov-12 22:32N 01°26' E 103°55'0 0.0
2017-Nov-12 04:02N 01°26' E 103°55'0 0.0
2017-Nov-12 02:02N 01°26' E 103°55'0 0.0
2017-Nov-12 01:02N 01°26' E 103°55'0 0.0
2017-Nov-12 00:56N 01°26' E 103°55'0 0.0
2017-Nov-11 22:32N 01°26' E 103°55'0 0.0
2017-Nov-11 22:26N 01°26' E 103°55'0 0.0
2017-Nov-11 21:47N 01°26' E 103°55'9 6.1
2017-Nov-11 20:18N 01°22' E 104°03'310.6
2017-Nov-11 19:58N 01°19' E 104°05'6 0.4
2017-Nov-11 05:57N 01°15' E 104°01'410.1
2017-Nov-11 05:30N 01°14' E 103°57'510.1
2017-Nov-11 05:00N 01°12' E 103°53'5 9.2
2017-Nov-11 04:30N 01°10' E 103°48'5 9.8
2017-Nov-11 04:00N 01°07' E 103°45'511.0
2017-Nov-11 03:30N 01°03' E 103°40'610.5
2017-Nov-11 02:59N 01°05' E 103°35'611.2
2017-Nov-11 02:29N 01°07' E 103°30'711.3
2017-Nov-11 01:53N 01°11' E 103°25'  

Dump ship's entire track history